createdAt,value
2019-05-25T00:01:36.014Z,88.19
2019-05-25T00:04:03.466Z,87.99
2019-05-25T00:06:30.763Z,88.04
2019-05-25T00:08:57.927Z,87.36
2019-05-25T00:11:25.623Z,87.57
2019-05-25T00:13:52.855Z,87.95
2019-05-25T00:16:20.369Z,88.13
2019-05-25T00:18:47.308Z,88.26
2019-05-25T00:21:14.658Z,88.12
2019-05-25T00:23:41.697Z,88.02
2019-05-25T00:26:08.855Z,87.72
2019-05-25T00:28:35.771Z,87.71
2019-05-25T00:31:03.119Z,87.91
2019-05-25T00:33:30.511Z,87.80
2019-05-25T00:35:57.562Z,87.59
2019-05-25T00:38:24.566Z,87.13
2019-05-25T00:40:51.503Z,86.67
2019-05-25T00:43:18.742Z,86.45
2019-05-25T00:45:46.435Z,86.70
2019-05-25T00:48:13.443Z,87.39
2019-05-25T00:50:40.567Z,87.45
2019-05-25T00:53:08.205Z,87.89
2019-05-25T00:55:35.500Z,88.01
2019-05-25T00:58:02.932Z,88.16
2019-05-25T01:00:30.386Z,88.06
2019-05-25T01:02:57.780Z,88.37
2019-05-25T01:05:24.878Z,88.46
2019-05-25T01:07:52.122Z,88.32
2019-05-25T01:10:19.639Z,88.68
2019-05-25T01:12:47.157Z,88.96
2019-05-25T01:15:15.154Z,88.82
2019-05-25T01:17:42.727Z,88.91
2019-05-25T01:20:11.236Z,88.35
2019-05-25T01:22:38.685Z,88.38
2019-05-25T01:25:07.076Z,88.32
2019-05-25T01:27:34.571Z,88.34
2019-05-25T01:30:04.951Z,88.32
2019-05-25T01:32:32.105Z,87.97
2019-05-25T01:34:59.095Z,87.78
2019-05-25T01:37:26.120Z,87.65
2019-05-25T01:39:53.597Z,87.62
2019-05-25T01:42:20.756Z,87.52
2019-05-25T01:44:47.863Z,87.40
2019-05-25T01:47:15.043Z,87.36
2019-05-25T01:49:42.316Z,87.41
2019-05-25T01:52:09.715Z,87.53
2019-05-25T01:54:36.919Z,87.19
2019-05-25T01:57:04.280Z,87.31
2019-05-25T01:59:32.315Z,87.84
2019-05-25T02:01:59.739Z,87.96
2019-05-25T02:04:27.052Z,87.95
2019-05-25T02:06:54.279Z,87.74
2019-05-25T02:09:21.573Z,87.24
2019-05-25T02:11:48.839Z,87.21
2019-05-25T02:14:16.194Z,87.88
2019-05-25T02:16:43.499Z,87.95
2019-05-25T02:19:10.741Z,88.17
2019-05-25T02:21:38.031Z,88.29
2019-05-25T02:24:05.272Z,88.30
2019-05-25T02:26:32.574Z,88.02
2019-05-25T02:29:00.218Z,87.65
2019-05-25T02:31:27.337Z,87.98
2019-05-25T02:33:54.732Z,88.06
2019-05-25T02:36:22.149Z,88.12
2019-05-25T02:38:49.726Z,88.26
2019-05-25T02:41:16.923Z,88.24
2019-05-25T02:43:44.255Z,88.23
2019-05-25T02:46:11.563Z,88.33
2019-05-25T02:48:39.347Z,88.66
2019-05-25T02:51:06.646Z,88.77
2019-05-25T02:53:34.015Z,88.87
2019-05-25T02:56:01.415Z,88.95
2019-05-25T02:58:28.788Z,89.13
2019-05-25T03:00:56.775Z,89.22
2019-05-25T03:03:24.311Z,88.27
2019-05-25T03:05:52.115Z,88.05
2019-05-25T03:08:19.699Z,88.54
2019-05-25T03:10:47.839Z,88.70
2019-05-25T03:13:15.314Z,89.01
2019-05-25T03:15:43.025Z,89.03
2019-05-25T03:18:10.215Z,89.09
2019-05-25T03:20:37.656Z,89.08
2019-05-25T03:23:04.888Z,88.97
2019-05-25T03:25:31.946Z,89.00
2019-05-25T03:27:59.045Z,89.02
2019-05-25T03:30:33.542Z,88.95
2019-05-25T03:33:01.104Z,88.41
2019-05-25T03:35:28.734Z,87.42
2019-05-25T03:37:56.732Z,87.12
2019-05-25T03:40:23.818Z,87.11
2019-05-25T03:42:51.607Z,87.71
2019-05-25T03:45:19.252Z,87.79
2019-05-25T03:47:46.340Z,88.07
2019-05-25T03:50:14.351Z,88.10
2019-05-25T03:52:41.427Z,88.45
2019-05-25T03:55:09.135Z,87.99
2019-05-25T03:57:36.317Z,87.65
2019-05-25T04:00:06.143Z,87.18
2019-05-25T04:02:33.516Z,86.88
2019-05-25T04:05:00.511Z,86.94
2019-05-25T04:07:27.514Z,87.01
2019-05-25T04:09:54.826Z,86.63
2019-05-25T04:12:21.868Z,86.55
2019-05-25T04:14:49.270Z,87.00
2019-05-25T04:17:16.202Z,87.02
2019-05-25T04:19:43.309Z,87.64
2019-05-25T04:22:10.342Z,87.61
2019-05-25T04:24:37.832Z,87.13
2019-05-25T04:27:04.733Z,87.13
2019-05-25T04:29:31.800Z,86.80
2019-05-25T04:31:58.692Z,87.06
2019-05-25T04:34:25.845Z,87.47
2019-05-25T04:36:52.848Z,87.47
2019-05-25T04:39:20.240Z,87.68
2019-05-25T04:41:47.148Z,87.23
2019-05-25T04:44:14.191Z,87.52
2019-05-25T04:46:41.756Z,87.56
2019-05-25T04:49:08.638Z,87.32
2019-05-25T04:51:35.915Z,87.68
2019-05-25T04:54:03.407Z,87.59
2019-05-25T04:56:39.441Z,87.59
2019-05-25T04:58:59.799Z,87.77
2019-05-25T05:01:26.843Z,88.01
2019-05-25T05:03:53.745Z,87.93
2019-05-25T05:06:20.888Z,87.84
2019-05-25T05:08:48.044Z,87.52
2019-05-25T05:11:15.031Z,87.36
2019-05-25T05:13:41.958Z,87.46
2019-05-25T05:16:09.772Z,87.73
2019-05-25T05:18:37.421Z,87.18
2019-05-25T05:21:04.406Z,86.91
2019-05-25T05:23:31.401Z,87.07
2019-05-25T05:25:58.482Z,87.06
2019-05-25T05:28:26.949Z,87.15
2019-05-25T05:30:54.170Z,87.16
2019-05-25T05:33:22.086Z,87.44
2019-05-25T05:35:50.660Z,86.94
2019-05-25T05:38:17.751Z,87.14
2019-05-25T05:40:45.852Z,87.27
2019-05-25T05:43:12.744Z,86.78
2019-05-25T05:45:41.296Z,86.41
2019-05-25T05:48:09.787Z,87.06
2019-05-25T05:50:38.212Z,86.71
2019-05-25T05:53:05.363Z,86.91
2019-05-25T05:55:33.099Z,86.53
2019-05-25T05:58:01.097Z,86.53
2019-05-25T06:00:28.570Z,86.49
2019-05-25T06:02:58.771Z,86.56
2019-05-25T06:05:26.013Z,86.56
2019-05-25T06:07:52.822Z,86.79
2019-05-25T06:10:20.763Z,86.50
2019-05-25T06:12:47.784Z,86.59
2019-05-25T06:15:15.631Z,87.14
2019-05-25T06:17:42.527Z,87.87
2019-05-25T06:20:09.535Z,86.16
2019-05-25T06:22:36.568Z,85.54
2019-05-25T06:25:06.386Z,86.22
2019-05-25T06:27:33.737Z,85.33
2019-05-25T06:30:01.048Z,81.55
2019-05-25T06:32:28.763Z,81.62
2019-05-25T06:34:55.859Z,80.58
2019-05-25T06:37:22.909Z,80.19
2019-05-25T06:39:49.935Z,77.92
2019-05-25T06:42:17.459Z,78.14
2019-05-25T06:44:44.752Z,76.29
2019-05-25T06:47:11.917Z,76.39
2019-05-25T06:49:38.723Z,75.73
2019-05-25T06:52:05.889Z,75.35
2019-05-25T06:54:32.960Z,74.04
2019-05-25T06:57:00.190Z,74.07
2019-05-25T06:59:27.320Z,72.99
2019-05-25T07:01:54.486Z,73.02
2019-05-25T07:04:21.400Z,72.67
2019-05-25T07:06:48.543Z,71.57
2019-05-25T07:09:15.930Z,71.15
2019-05-25T07:11:42.980Z,71.05
2019-05-25T07:14:10.130Z,70.71
2019-05-25T07:16:36.987Z,71.23
2019-05-25T07:19:04.182Z,72.19
2019-05-25T07:21:31.225Z,71.85
2019-05-25T07:23:58.154Z,71.66
2019-05-25T07:26:25.322Z,70.82
2019-05-25T07:28:52.727Z,70.70
2019-05-25T07:31:20.126Z,69.51
2019-05-25T07:33:47.079Z,68.31
2019-05-25T07:36:13.975Z,67.84
2019-05-25T07:38:41.011Z,68.01
2019-05-25T07:41:08.280Z,67.09
2019-05-25T07:43:35.301Z,66.70
2019-05-25T07:46:02.484Z,68.30
2019-05-25T07:48:29.634Z,67.96
2019-05-25T07:50:56.663Z,66.89
2019-05-25T07:53:23.575Z,67.17
2019-05-25T07:55:50.667Z,66.05
2019-05-25T07:58:18.645Z,65.39
2019-05-25T08:00:45.932Z,66.09
2019-05-25T08:03:12.954Z,66.80
2019-05-25T08:05:40.212Z,64.31
2019-05-25T08:08:07.226Z,63.82
2019-05-25T08:10:34.295Z,63.44
2019-05-25T08:13:01.291Z,63.74
2019-05-25T08:15:28.215Z,63.00
2019-05-25T08:17:55.220Z,61.81
2019-05-25T08:20:22.567Z,62.16
2019-05-25T08:22:49.766Z,61.68
2019-05-25T08:25:16.997Z,60.78
2019-05-25T08:27:44.023Z,62.73
2019-05-25T08:30:11.282Z,61.37
2019-05-25T08:32:38.209Z,61.22
2019-05-25T08:35:07.465Z,59.49
2019-05-25T08:37:34.389Z,59.48
2019-05-25T08:40:03.068Z,59.33
2019-05-25T08:42:29.960Z,61.12
2019-05-25T08:44:57.021Z,58.93
2019-05-25T08:47:24.356Z,60.01
2019-05-25T08:49:51.378Z,58.28
2019-05-25T08:52:18.318Z,57.56
2019-05-25T08:54:45.767Z,57.90
2019-05-25T08:57:18.712Z,57.70
2019-05-25T08:59:46.879Z,58.08
2019-05-25T09:02:13.782Z,58.13
2019-05-25T09:04:40.747Z,55.49
2019-05-25T09:07:08.263Z,57.35
2019-05-25T09:09:35.173Z,57.27
2019-05-25T09:12:02.551Z,57.33
2019-05-25T09:14:40.430Z,57.49
2019-05-25T09:17:07.777Z,57.03
2019-05-25T09:19:34.614Z,57.48
2019-05-25T09:22:03.823Z,56.11
2019-05-25T09:24:30.764Z,56.18
2019-05-25T09:26:58.287Z,56.78
2019-05-25T09:29:25.330Z,55.96
2019-05-25T09:31:52.231Z,57.32
2019-05-25T09:34:19.579Z,55.16
2019-05-25T09:36:46.668Z,54.72
2019-05-25T09:39:13.771Z,57.07
2019-05-25T09:41:41.302Z,56.62
2019-05-25T09:44:08.702Z,55.35
2019-05-25T09:46:35.504Z,54.26
2019-05-25T09:49:02.711Z,54.98
2019-05-25T09:51:29.864Z,55.38
2019-05-25T09:53:57.077Z,54.40
2019-05-25T09:56:24.147Z,54.05
2019-05-25T09:58:50.976Z,53.98
2019-05-25T10:01:18.305Z,52.63
2019-05-25T10:03:45.677Z,53.95
2019-05-25T10:06:13.466Z,53.26
2019-05-25T10:08:41.055Z,53.63
2019-05-25T10:11:08.153Z,53.26
2019-05-25T10:13:35.083Z,53.54
2019-05-25T10:16:01.987Z,52.66
2019-05-25T10:18:28.951Z,53.21
2019-05-25T10:20:56.177Z,52.99
2019-05-25T10:23:23.315Z,52.72
2019-05-25T10:25:50.817Z,54.98
2019-05-25T10:28:17.863Z,53.52
2019-05-25T10:30:44.838Z,53.57
2019-05-25T10:33:11.859Z,53.15
2019-05-25T10:35:38.979Z,52.38
2019-05-25T10:38:05.987Z,52.93
2019-05-25T10:40:33.041Z,52.66
2019-05-25T10:43:00.221Z,52.26
2019-05-25T10:45:27.586Z,51.72
2019-05-25T10:47:54.762Z,51.42
2019-05-25T10:50:22.099Z,52.49
2019-05-25T10:52:48.936Z,51.88
2019-05-25T10:55:16.365Z,51.48
2019-05-25T10:57:44.556Z,51.29
2019-05-25T11:00:12.802Z,51.65
2019-05-25T11:02:39.708Z,52.30
2019-05-25T11:05:07.800Z,52.65
2019-05-25T11:07:35.325Z,52.75
2019-05-25T11:10:05.944Z,51.78
2019-05-25T11:12:32.971Z,51.61
2019-05-25T11:14:59.967Z,50.27
2019-05-25T11:17:27.038Z,51.68
2019-05-25T11:19:53.985Z,52.14
2019-05-25T11:22:20.973Z,51.72
2019-05-25T11:24:48.197Z,50.84
2019-05-25T11:27:15.203Z,52.50
2019-05-25T11:29:42.356Z,52.22
2019-05-25T11:32:09.523Z,51.55
2019-05-25T11:34:36.575Z,51.29
2019-05-25T11:37:03.679Z,50.92
2019-05-25T11:39:30.586Z,51.29
2019-05-25T11:41:57.748Z,51.78
2019-05-25T11:44:24.940Z,51.19
2019-05-25T11:46:52.306Z,51.66
2019-05-25T11:49:22.655Z,50.79
2019-05-25T11:51:48.646Z,51.98
2019-05-25T11:54:15.695Z,52.61
2019-05-25T11:56:42.715Z,51.60
2019-05-25T11:59:09.855Z,50.34
2019-05-25T12:01:36.999Z,51.47
2019-05-25T12:04:04.235Z,51.25
2019-05-25T12:06:32.589Z,51.31
2019-05-25T12:08:59.730Z,51.91
2019-05-25T12:11:26.731Z,51.50
2019-05-25T12:13:53.793Z,52.11
2019-05-25T12:16:20.905Z,51.96
2019-05-25T12:18:48.115Z,52.39
2019-05-25T12:21:15.435Z,52.37
2019-05-25T12:23:42.547Z,51.49
2019-05-25T12:26:09.560Z,51.22
2019-05-25T12:28:36.536Z,50.89
2019-05-25T12:31:03.728Z,50.51
2019-05-25T12:33:30.871Z,50.52
2019-05-25T12:35:57.904Z,50.57
2019-05-25T12:38:24.954Z,50.06
2019-05-25T12:40:53.905Z,50.76
2019-05-25T12:43:20.856Z,51.54
2019-05-25T12:45:48.043Z,51.41
2019-05-25T12:48:15.456Z,50.76
2019-05-25T12:50:42.447Z,51.81
2019-05-25T12:53:09.610Z,51.76
2019-05-25T12:55:36.651Z,52.31
2019-05-25T12:58:03.664Z,51.95
2019-05-25T13:00:30.836Z,51.73
2019-05-25T13:02:57.989Z,52.02
2019-05-25T13:05:33.486Z,51.51
2019-05-25T13:07:53.950Z,50.77
2019-05-25T13:10:21.282Z,50.78
2019-05-25T13:12:48.424Z,51.14
2019-05-25T13:15:15.831Z,50.38
2019-05-25T13:17:42.992Z,49.81
2019-05-25T13:20:10.421Z,50.35
2019-05-25T13:22:37.455Z,50.71
2019-05-25T13:25:07.935Z,50.57
2019-05-25T13:27:34.936Z,49.82
2019-05-25T13:30:04.853Z,49.07
2019-05-25T13:32:32.072Z,50.13
2019-05-25T13:34:58.983Z,49.97
2019-05-25T13:37:26.425Z,50.44
2019-05-25T13:39:53.412Z,50.45
2019-05-25T13:42:20.334Z,50.52
2019-05-25T13:44:47.671Z,50.58
2019-05-25T13:47:14.608Z,50.69
2019-05-25T13:49:41.716Z,50.51
2019-05-25T13:52:08.622Z,50.18
2019-05-25T13:54:35.888Z,50.08
2019-05-25T13:57:03.219Z,50.48
2019-05-25T13:59:30.266Z,50.00
2019-05-25T14:01:57.348Z,49.42
2019-05-25T14:04:24.516Z,49.59
2019-05-25T14:06:51.996Z,49.33
2019-05-25T14:09:19.100Z,49.94
2019-05-25T14:11:46.320Z,50.63
2019-05-25T14:21:18.518Z,47.57
2019-05-25T14:23:45.661Z,50.03
2019-05-25T14:26:12.700Z,50.33
2019-05-25T14:28:39.609Z,50.05
2019-05-25T14:31:07.554Z,50.10
2019-05-25T14:33:34.455Z,49.82
2019-05-25T14:36:01.610Z,50.13
2019-05-25T14:38:28.611Z,49.54
2019-05-25T14:40:55.939Z,50.20
2019-05-25T14:43:22.836Z,49.48
2019-05-25T14:45:53.358Z,50.35
2019-05-25T14:48:19.126Z,49.71
2019-05-25T14:50:46.592Z,49.93
2019-05-25T14:53:13.951Z,50.72
2019-05-25T14:55:41.079Z,50.57
2019-05-25T14:58:08.094Z,50.99
2019-05-25T15:00:35.285Z,50.38
2019-05-25T15:03:02.382Z,51.11
2019-05-25T15:05:29.415Z,50.47
2019-05-25T15:07:56.456Z,51.21
2019-05-25T15:10:23.379Z,50.75
2019-05-25T15:12:50.647Z,50.88
2019-05-25T15:15:18.314Z,51.15
2019-05-25T15:17:45.602Z,51.13
2019-05-25T15:20:13.454Z,50.32
2019-05-25T15:22:40.557Z,51.46
2019-05-25T15:25:08.861Z,50.72
2019-05-25T15:27:36.100Z,51.07
2019-05-25T15:30:07.082Z,51.38
2019-05-25T15:32:34.615Z,51.05
2019-05-25T15:35:03.139Z,51.14
2019-05-25T15:37:30.197Z,51.38
2019-05-25T15:39:57.092Z,51.62
2019-05-25T15:42:24.139Z,51.20
2019-05-25T15:44:51.135Z,51.73
2019-05-25T15:47:18.327Z,51.34
2019-05-25T15:49:45.220Z,51.73
2019-05-25T15:52:12.843Z,52.21
2019-05-25T15:54:40.090Z,51.90
2019-05-25T15:57:07.003Z,52.04
2019-05-25T15:59:33.939Z,50.90
2019-05-25T16:02:01.206Z,51.72
2019-05-25T16:04:28.191Z,52.34
2019-05-25T16:06:55.225Z,52.73
2019-05-25T16:09:22.388Z,52.49
2019-05-25T16:11:49.479Z,52.73
2019-05-25T16:14:16.445Z,53.23
2019-05-25T16:16:43.349Z,53.18
2019-05-25T16:19:10.683Z,53.02
2019-05-25T16:21:37.736Z,53.42
2019-05-25T16:24:07.911Z,53.19
2019-05-25T16:26:45.677Z,53.24
2019-05-25T16:29:03.352Z,53.37
2019-05-25T16:31:30.386Z,53.63
2019-05-25T16:33:57.283Z,53.43
2019-05-25T16:36:24.451Z,53.36
2019-05-25T16:38:51.291Z,53.16
2019-05-25T16:41:18.214Z,53.49
2019-05-25T16:43:45.569Z,54.19
2019-05-25T16:46:12.843Z,54.43
2019-05-25T16:48:40.036Z,54.86
2019-05-25T16:51:07.055Z,54.99
2019-05-25T16:53:34.054Z,54.95
2019-05-25T16:56:01.154Z,55.33
2019-05-25T16:58:28.352Z,55.42
2019-05-25T17:00:55.469Z,55.31
2019-05-25T17:03:28.104Z,55.71
2019-05-25T17:05:51.900Z,55.94
2019-05-25T17:08:18.959Z,55.86
2019-05-25T17:10:45.787Z,55.94
2019-05-25T17:13:12.904Z,56.03
2019-05-25T17:15:39.970Z,55.51
2019-05-25T17:18:06.994Z,55.83
2019-05-25T17:20:34.380Z,56.07
2019-05-25T17:23:01.276Z,56.16
2019-05-25T17:25:28.199Z,56.53
2019-05-25T17:27:55.237Z,56.69
2019-05-25T17:30:43.703Z,57.22
2019-05-25T17:33:11.788Z,57.58
2019-05-25T17:35:39.499Z,57.73
2019-05-25T17:38:07.065Z,58.26
2019-05-25T17:40:34.057Z,58.39
2019-05-25T17:43:01.444Z,58.47
2019-05-25T17:45:28.459Z,58.86
2019-05-25T17:47:55.979Z,58.98
2019-05-25T17:50:23.280Z,59.25
2019-05-25T17:52:50.205Z,59.45
2019-05-25T17:55:17.634Z,59.74
2019-05-25T17:57:44.723Z,60.00
2019-05-25T18:00:13.873Z,60.19
2019-05-25T18:02:40.876Z,59.86
2019-05-25T18:05:09.074Z,59.96
2019-05-25T18:07:36.083Z,59.73
2019-05-25T18:10:07.992Z,59.60
2019-05-25T18:12:34.957Z,59.74
2019-05-25T18:15:08.148Z,59.66
2019-05-25T18:17:35.149Z,59.88
2019-05-25T18:20:06.176Z,59.62
2019-05-25T18:22:33.070Z,59.94
2019-05-25T18:25:00.552Z,59.94
2019-05-25T18:27:27.528Z,60.10
2019-05-25T18:29:54.450Z,60.46
2019-05-25T18:32:21.867Z,60.37
2019-05-25T18:34:48.692Z,60.38
2019-05-25T18:37:15.760Z,61.02
2019-05-25T18:39:42.970Z,60.61
2019-05-25T18:42:09.939Z,60.52
2019-05-25T18:44:36.863Z,60.42
2019-05-25T19:01:06.261Z,61.25
2019-05-25T19:30:27.280Z,62.23
2019-05-25T19:32:54.682Z,62.09
2019-05-25T19:35:22.231Z,62.04
2019-05-25T19:37:49.287Z,61.92
2019-05-25T19:40:17.099Z,61.92
2019-05-25T19:42:44.038Z,62.10
2019-05-25T19:45:13.278Z,62.21
2019-05-25T19:47:40.453Z,61.91
2019-05-25T19:50:08.265Z,62.49
2019-05-25T19:52:35.826Z,62.84
2019-05-25T19:55:06.617Z,63.08
2019-05-25T19:57:33.828Z,63.50
2019-05-25T20:00:01.052Z,63.94
2019-05-25T20:02:28.681Z,64.32
2019-05-25T20:04:55.689Z,64.39
2019-05-25T20:07:22.773Z,64.46
2019-05-25T20:09:49.784Z,64.32
2019-05-25T20:12:16.824Z,64.19
2019-05-25T20:14:43.930Z,64.58
2019-05-25T20:17:10.836Z,64.76
2019-05-25T20:19:37.739Z,64.45
2019-05-25T20:22:06.944Z,64.55
2019-05-25T20:24:34.107Z,64.86
2019-05-25T20:27:01.784Z,65.23
2019-05-25T20:29:28.985Z,65.32
2019-05-25T20:31:56.183Z,65.18
2019-05-25T20:34:22.988Z,65.25
2019-05-25T20:36:50.237Z,65.35
2019-05-25T20:39:17.477Z,65.58
2019-05-25T20:41:44.634Z,65.96
2019-05-25T20:44:11.500Z,65.80
2019-05-25T20:46:38.772Z,66.05
2019-05-25T20:49:06.103Z,66.33
2019-05-25T20:51:33.374Z,66.19
2019-05-25T20:54:00.512Z,65.99
2019-05-25T20:56:27.819Z,65.86
2019-05-25T20:58:55.025Z,66.00
2019-05-25T21:01:21.835Z,65.98
2019-05-25T21:03:48.994Z,66.07
2019-05-25T21:06:16.383Z,66.19
2019-05-25T21:08:43.533Z,66.91
2019-05-25T21:11:10.582Z,67.51
2019-05-25T21:13:37.445Z,66.91
2019-05-25T21:16:04.764Z,67.65
2019-05-25T21:18:32.110Z,67.64
2019-05-25T21:20:59.019Z,68.28
2019-05-25T21:23:26.121Z,68.47
2019-05-25T21:25:53.126Z,68.64
2019-05-25T21:28:20.259Z,69.04
2019-05-25T21:30:47.394Z,68.83
2019-05-25T21:33:14.577Z,68.68
2019-05-25T21:35:41.874Z,68.81
2019-05-25T21:38:09.620Z,68.62
2019-05-25T21:40:36.768Z,68.54
2019-05-25T21:43:03.971Z,68.66
2019-05-25T21:45:31.157Z,68.85
2019-05-25T21:47:58.576Z,68.69
2019-05-25T21:50:25.507Z,68.65
2019-05-25T21:52:52.359Z,69.03
2019-05-25T21:55:19.680Z,68.90
2019-05-25T21:57:46.727Z,68.99
2019-05-25T22:00:17.935Z,69.49
2019-05-25T22:02:45.427Z,69.87
2019-05-25T22:05:12.720Z,70.15
2019-05-25T22:07:39.669Z,69.86
2019-05-25T22:10:07.368Z,69.94
2019-05-25T22:12:34.647Z,70.07
2019-05-25T22:15:02.240Z,70.36
2019-05-25T22:17:29.632Z,70.97
2019-05-25T22:19:57.125Z,70.45
2019-05-25T22:22:24.080Z,70.87
2019-05-25T22:24:51.081Z,71.25
2019-05-25T22:27:18.535Z,71.51
2019-05-25T22:29:45.637Z,71.50
2019-05-25T22:32:12.693Z,71.46
2019-05-25T22:34:39.842Z,71.02
2019-05-25T22:37:06.872Z,71.01
2019-05-25T22:39:34.034Z,71.15
2019-05-25T22:42:01.036Z,70.78
2019-05-25T22:44:28.098Z,70.60
2019-05-25T22:46:54.996Z,70.67
2019-05-25T22:49:22.020Z,70.55
2019-05-25T22:51:49.227Z,70.59
2019-05-25T22:54:17.459Z,70.76
2019-05-25T22:56:44.790Z,70.73
2019-05-25T22:59:11.787Z,70.73
2019-05-25T23:01:38.850Z,70.73
2019-05-25T23:04:05.744Z,70.72
2019-05-25T23:06:33.503Z,70.90
2019-05-25T23:09:00.771Z,71.55
2019-05-25T23:11:28.022Z,71.85
2019-05-25T23:13:55.120Z,71.94
2019-05-25T23:16:21.978Z,71.78
2019-05-25T23:18:48.982Z,71.93
2019-05-25T23:21:16.023Z,72.02
2019-05-25T23:23:42.937Z,72.15
2019-05-25T23:26:10.095Z,72.02
2019-05-25T23:28:37.379Z,72.36
2019-05-25T23:31:04.276Z,72.51
2019-05-25T23:33:31.308Z,72.64
2019-05-25T23:35:58.514Z,72.36
2019-05-25T23:38:25.568Z,73.39
2019-05-25T23:40:52.455Z,73.22
2019-05-25T23:43:19.562Z,73.43
2019-05-25T23:45:46.652Z,73.58
2019-05-25T23:48:13.963Z,73.50
2019-05-25T23:50:41.178Z,73.45
2019-05-25T23:53:08.117Z,73.84
2019-05-25T23:55:35.018Z,73.74
2019-05-25T23:58:01.960Z,73.72
